Time;durP1;ratioP1;P1;durP2;ratioP2;P2;SDS_P1;SDS_P2;PMS_P1;PMS_P2;Temp;Humidity;BMP_temperature;BMP_pressure;BME280_temperature;BME280_humidity;BME280_pressure;Samples;Min_cycle;Max_cycle;Signal;HPM_P1;HPM_P2
2022/07/09 00:01:58;;;;;;;;;;;19.40;75.80;;;;;;5016312;28;20452;-83
2022/07/09 00:04:23;;;;;;;;;;;19.40;75.40;;;;;;5010035;28;19917;-84
2022/07/09 00:06:49;;;;;;;;;;;19.40;75.50;;;;;;5002068;28;21016;-84
2022/07/09 00:09:14;;;;;;;;;;;19.30;75.90;;;;;;5006899;28;19928;-83
2022/07/09 00:11:40;;;;;;;;;;;19.30;75.70;;;;;;5002615;28;19920;-83
2022/07/09 00:14:05;;;;;;;;;;;19.30;75.80;;;;;;5004262;28;20047;-84
2022/07/09 00:16:31;;;;;;;;;;;19.40;75.60;;;;;;5002288;28;19923;-84
2022/07/09 00:18:56;;;;;;;;;;;19.40;75.00;;;;;;5002333;28;19993;-84
2022/07/09 00:21:22;;;;;;;;;;;19.20;76.00;;;;;;5003770;28;19964;-83
2022/07/09 00:23:47;;;;;;;;;;;19.20;76.30;;;;;;5002860;28;19956;-83
2022/07/09 00:26:13;;;;;;;;;;;19.20;76.60;;;;;;5002778;28;19912;-83
2022/07/09 00:28:38;;;;;;;;;;;19.20;76.50;;;;;;5012053;28;19945;-84
2022/07/09 00:31:04;;;;;;;;;;;19.10;77.40;;;;;;5004164;28;20846;-84
2022/07/09 00:33:30;;;;;;;;;;;18.90;77.60;;;;;;5015882;28;19956;-83
2022/07/09 00:35:55;;;;;;;;;;;18.90;77.90;;;;;;5002083;28;20076;-84
2022/07/09 00:38:21;;;;;;;;;;;18.90;77.70;;;;;;5002277;28;19920;-83
2022/07/09 00:40:46;;;;;;;;;;;19.00;77.00;;;;;;5001568;28;20448;-84
2022/07/09 00:43:18;;;;;;;;;;;18.90;77.60;;;;;;5002787;28;19916;-84
2022/07/09 00:45:44;;;;;;;;;;;18.90;78.10;;;;;;5003994;28;19917;-84
2022/07/09 00:48:10;;;;;;;;;;;18.80;78.30;;;;;;5000970;28;19917;-83
2022/07/09 00:50:36;;;;;;;;;;;18.80;78.20;;;;;;5001242;28;19920;-84
2022/07/09 00:53:01;;;;;;;;;;;18.70;78.90;;;;;;5001870;28;19919;-84
2022/07/09 00:55:28;;;;;;;;;;;18.60;79.10;;;;;;5000628;28;19917;-83
2022/07/09 00:57:54;;;;;;;;;;;18.90;77.80;;;;;;5007007;28;19928;-84
2022/07/09 01:00:20;;;;;;;;;;;18.80;78.50;;;;;;5007220;28;19964;-83
2022/07/09 01:02:47;;;;;;;;;;;18.70;79.10;;;;;;5000292;28;20865;-84
2022/07/09 01:05:13;;;;;;;;;;;18.80;78.50;;;;;;5001689;28;19952;-83
2022/07/09 01:07:38;;;;;;;;;;;18.70;78.70;;;;;;5001027;28;20446;-83
2022/07/09 01:10:04;;;;;;;;;;;18.60;79.30;;;;;;5000279;28;19920;-83
2022/07/09 01:12:30;;;;;;;;;;;18.60;78.90;;;;;;5002088;28;19917;-83
2022/07/09 01:14:56;;;;;;;;;;;18.60;78.80;;;;;;5001028;28;20017;-84
2022/07/09 01:17:21;;;;;;;;;;;18.60;78.70;;;;;;4985509;28;20565;-83
2022/07/09 01:19:48;;;;;;;;;;;18.60;78.80;;;;;;5001015;28;19922;-84
2022/07/09 01:22:13;;;;;;;;;;;18.60;78.60;;;;;;5001254;28;20362;-83
2022/07/09 01:24:39;;;;;;;;;;;18.60;78.80;;;;;;5000847;28;19924;-84
2022/07/09 01:27:05;;;;;;;;;;;18.50;78.80;;;;;;5000089;28;20921;-84
2022/07/09 01:29:31;;;;;;;;;;;18.50;79.20;;;;;;5014642;28;19913;-83
2022/07/09 01:31:56;;;;;;;;;;;18.50;79.10;;;;;;5001125;28;19936;-84
2022/07/09 01:34:22;;;;;;;;;;;18.40;79.20;;;;;;5001525;28;19913;-84
2022/07/09 01:36:48;;;;;;;;;;;18.40;79.30;;;;;;5000495;28;19983;-83
2022/07/09 01:39:14;;;;;;;;;;;18.40;79.40;;;;;;5000205;28;20352;-83
2022/07/09 01:41:39;;;;;;;;;;;18.40;79.10;;;;;;5000389;28;19919;-84
2022/07/09 01:44:06;;;;;;;;;;;18.40;78.80;;;;;;5001321;28;20518;-83
2022/07/09 01:46:33;;;;;;;;;;;18.40;79.10;;;;;;5000796;28;19928;-83
2022/07/09 01:48:58;;;;;;;;;;;18.30;79.50;;;;;;5000556;28;20390;-83
2022/07/09 01:51:24;;;;;;;;;;;18.30;79.40;;;;;;5000498;28;19912;-83
2022/07/09 01:53:49;;;;;;;;;;;18.20;80.60;;;;;;5002529;28;19913;-83
2022/07/09 01:56:15;;;;;;;;;;;18.20;79.80;;;;;;5002535;28;19917;-82
2022/07/09 01:58:40;;;;;;;;;;;18.20;80.10;;;;;;5004495;28;19927;-84
2022/07/09 02:01:06;;;;;;;;;;;18.10;80.30;;;;;;5006292;28;19921;-84
2022/07/09 02:03:31;;;;;;;;;;;18.30;79.70;;;;;;5000436;28;19916;-83
2022/07/09 02:05:57;;;;;;;;;;;18.10;80.20;;;;;;5001351;28;19919;-83
2022/07/09 02:08:23;;;;;;;;;;;18.20;79.70;;;;;;5001079;28;20519;-83
2022/07/09 02:10:49;;;;;;;;;;;18.10;80.00;;;;;;4999767;28;20060;-83
2022/07/09 02:13:14;;;;;;;;;;;18.00;81.10;;;;;;5000311;28;20006;-84
2022/07/09 02:15:40;;;;;;;;;;;18.00;81.30;;;;;;4999780;28;20019;-83
2022/07/09 02:18:05;;;;;;;;;;;18.00;81.00;;;;;;4999240;28;19956;-84
2022/07/09 02:20:32;;;;;;;;;;;18.00;81.10;;;;;;5003126;28;19921;-83
2022/07/09 02:22:58;;;;;;;;;;;17.90;81.60;;;;;;4999792;28;19920;-83
2022/07/09 02:25:23;;;;;;;;;;;17.90;81.50;;;;;;4989512;28;19912;-83
2022/07/09 02:27:49;;;;;;;;;;;17.90;81.50;;;;;;5017889;28;20653;-82
2022/07/09 02:30:14;;;;;;;;;;;17.90;81.50;;;;;;4982340;28;19928;-82
2022/07/09 02:32:40;;;;;;;;;;;17.70;82.70;;;;;;5000008;28;19925;-83
2022/07/09 02:35:06;;;;;;;;;;;17.80;82.60;;;;;;4999172;28;20490;-84
2022/07/09 02:37:32;;;;;;;;;;;17.70;83.40;;;;;;5001014;28;20500;-85
2022/07/09 02:39:57;;;;;;;;;;;17.60;83.80;;;;;;5003404;28;19978;-85
2022/07/09 02:42:23;;;;;;;;;;;17.60;83.90;;;;;;5018228;28;20263;-83
2022/07/09 02:44:51;;;;;;;;;;;17.60;83.80;;;;;;5002027;28;19948;-85
2022/07/09 02:47:16;;;;;;;;;;;17.60;84.30;;;;;;5002555;28;19924;-85
2022/07/09 02:49:42;;;;;;;;;;;17.50;84.70;;;;;;5000857;28;19917;-85
2022/07/09 02:52:08;;;;;;;;;;;17.30;86.00;;;;;;5000835;28;19932;-84
2022/07/09 02:54:34;;;;;;;;;;;17.40;86.30;;;;;;4986415;28;20382;-84
2022/07/09 02:57:00;;;;;;;;;;;17.40;85.80;;;;;;5012368;28;20015;-83
2022/07/09 02:59:25;;;;;;;;;;;17.50;85.60;;;;;;4999304;28;20378;-84
2022/07/09 03:01:51;;;;;;;;;;;17.40;86.00;;;;;;5004516;28;19917;-85
2022/07/09 03:04:17;;;;;;;;;;;17.30;86.60;;;;;;5001457;28;19985;-87
2022/07/09 03:06:42;;;;;;;;;;;17.30;86.70;;;;;;4982582;28;19916;-83
2022/07/09 03:09:08;;;;;;;;;;;17.20;86.90;;;;;;5000282;28;19913;-84
2022/07/09 03:11:34;;;;;;;;;;;17.30;87.20;;;;;;5008096;28;19913;-84
2022/07/09 03:13:59;;;;;;;;;;;17.20;87.20;;;;;;5004946;28;19917;-84
2022/07/09 03:16:25;;;;;;;;;;;17.30;87.60;;;;;;4999770;28;20728;-82
2022/07/09 03:18:50;;;;;;;;;;;17.20;88.00;;;;;;5000007;28;20334;-83
2022/07/09 03:21:16;;;;;;;;;;;17.10;88.90;;;;;;4985509;28;20441;-84
2022/07/09 03:23:41;;;;;;;;;;;17.10;88.80;;;;;;5000781;28;19948;-83
2022/07/09 03:26:07;;;;;;;;;;;17.10;88.50;;;;;;5006857;28;19913;-83
2022/07/09 03:28:33;;;;;;;;;;;17.10;89.80;;;;;;5018803;28;19963;-83
2022/07/09 03:30:59;;;;;;;;;;;17.00;90.00;;;;;;5000761;28;20429;-83
2022/07/09 03:33:24;;;;;;;;;;;17.00;89.80;;;;;;4988614;28;19927;-83
2022/07/09 03:35:50;;;;;;;;;;;16.90;90.30;;;;;;5003117;28;19928;-83
2022/07/09 03:38:15;;;;;;;;;;;17.00;90.20;;;;;;5002521;28;19924;-83
2022/07/09 03:40:41;;;;;;;;;;;17.00;90.30;;;;;;5001656;28;19925;-84
2022/07/09 03:43:06;;;;;;;;;;;16.90;90.70;;;;;;5004941;28;20011;-83
2022/07/09 03:45:32;;;;;;;;;;;16.90;90.80;;;;;;5002333;28;19967;-83
2022/07/09 03:47:57;;;;;;;;;;;16.90;90.80;;;;;;5003978;28;20248;-83
2022/07/09 03:50:23;;;;;;;;;;;17.00;90.80;;;;;;5002550;28;20386;-84
2022/07/09 03:52:48;;;;;;;;;;;16.90;91.10;;;;;;5002584;28;19917;-84
2022/07/09 03:55:14;;;;;;;;;;;16.80;91.50;;;;;;5002860;28;19917;-83
2022/07/09 03:57:39;;;;;;;;;;;16.80;91.80;;;;;;5000930;28;20432;-83
2022/07/09 04:00:06;;;;;;;;;;;16.70;91.80;;;;;;5009525;28;19927;-83
2022/07/09 04:02:31;;;;;;;;;;;16.70;92.40;;;;;;5006707;28;20015;-83
2022/07/09 04:04:57;;;;;;;;;;;16.60;92.50;;;;;;5001257;28;20000;-83
2022/07/09 04:07:23;;;;;;;;;;;16.60;92.60;;;;;;5004762;28;22232;-85
2022/07/09 04:09:48;;;;;;;;;;;16.80;92.00;;;;;;5003186;28;20348;-83
2022/07/09 04:12:14;;;;;;;;;;;16.70;92.50;;;;;;5003751;28;20637;-84
2022/07/09 04:14:39;;;;;;;;;;;16.60;92.80;;;;;;5002163;28;19944;-84
2022/07/09 04:17:06;;;;;;;;;;;16.50;93.40;;;;;;5001990;28;19972;-85
2022/07/09 04:19:31;;;;;;;;;;;16.80;92.50;;;;;;5004934;28;20405;-84
2022/07/09 04:21:57;;;;;;;;;;;16.60;93.30;;;;;;5005020;28;19913;-83
2022/07/09 04:24:22;;;;;;;;;;;16.50;93.40;;;;;;5003052;28;19913;-84
2022/07/09 04:26:48;;;;;;;;;;;16.60;93.20;;;;;;5021987;28;19939;-82
2022/07/09 04:29:13;;;;;;;;;;;16.50;93.90;;;;;;5014667;28;19939;-84
2022/07/09 04:31:39;;;;;;;;;;;16.70;93.30;;;;;;5002855;28;20062;-83
2022/07/09 04:34:07;;;;;;;;;;;17.10;92.40;;;;;;5003124;28;20048;-84
2022/07/09 04:36:32;;;;;;;;;;;17.80;89.90;;;;;;4986891;28;19919;-84
2022/07/09 04:38:58;;;;;;;;;;;18.10;86.70;;;;;;5001385;28;19921;-83
2022/07/09 04:41:23;;;;;;;;;;;18.40;85.10;;;;;;5013662;28;20349;-85
2022/07/09 04:43:49;;;;;;;;;;;18.70;83.20;;;;;;5003004;28;19955;-84
2022/07/09 04:46:17;;;;;;;;;;;18.80;81.30;;;;;;4988280;28;19917;-85
2022/07/09 04:48:43;;;;;;;;;;;19.10;80.70;;;;;;5003525;28;19935;-83
2022/07/09 04:51:08;;;;;;;;;;;19.30;80.00;;;;;;5001223;28;20002;-84
2022/07/09 04:53:34;;;;;;;;;;;19.50;78.30;;;;;;5001724;28;20699;-85
2022/07/09 04:55:59;;;;;;;;;;;19.70;77.50;;;;;;5003623;28;19917;-85
2022/07/09 04:58:25;;;;;;;;;;;19.90;76.10;;;;;;5016005;28;20397;-83
2022/07/09 05:00:51;;;;;;;;;;;20.20;75.20;;;;;;5001537;28;20405;-85
2022/07/09 05:03:16;;;;;;;;;;;20.50;74.10;;;;;;5003952;28;20527;-84
2022/07/09 05:05:42;;;;;;;;;;;20.60;74.10;;;;;;5003066;28;19913;-83
2022/07/09 05:08:07;;;;;;;;;;;20.80;72.70;;;;;;5001330;28;19920;-85
2022/07/09 05:10:33;;;;;;;;;;;20.90;72.50;;;;;;5002340;28;19912;-85
2022/07/09 05:12:58;;;;;;;;;;;21.10;71.60;;;;;;5002955;28;20092;-85
2022/07/09 05:15:24;;;;;;;;;;;21.10;71.20;;;;;;5004861;28;19928;-84
2022/07/09 05:17:50;;;;;;;;;;;21.30;70.90;;;;;;5002532;28;19917;-83
2022/07/09 05:20:15;;;;;;;;;;;21.80;68.60;;;;;;5003239;28;19986;-85
2022/07/09 05:22:41;;;;;;;;;;;21.90;67.50;;;;;;5001484;28;20015;-84
2022/07/09 05:25:07;;;;;;;;;;;22.10;66.70;;;;;;5002432;28;20047;-84
2022/07/09 05:27:32;;;;;;;;;;;22.60;65.70;;;;;;5014917;28;19998;-84
2022/07/09 05:29:58;;;;;;;;;;;23.10;64.70;;;;;;4987999;28;20015;-84
2022/07/09 05:32:24;;;;;;;;;;;23.10;63.90;;;;;;5003677;28;19948;-84
2022/07/09 05:34:49;;;;;;;;;;;23.70;62.20;;;;;;4988395;28;20016;-86
2022/07/09 05:37:15;;;;;;;;;;;23.10;63.30;;;;;;5002107;28;20153;-86
2022/07/09 05:39:40;;;;;;;;;;;23.30;63.00;;;;;;5003506;28;19925;-87
2022/07/09 05:42:06;;;;;;;;;;;23.30;63.30;;;;;;5013764;28;19921;-86
2022/07/09 05:44:32;;;;;;;;;;;22.30;65.30;;;;;;5022205;28;19912;-87
2022/07/09 05:46:57;;;;;;;;;;;21.90;65.80;;;;;;5024999;28;19919;-86
2022/07/09 05:49:23;;;;;;;;;;;21.90;66.50;;;;;;5025505;28;20293;-86
2022/07/09 05:51:49;;;;;;;;;;;22.20;67.00;;;;;;5025039;28;20464;-85
2022/07/09 05:54:14;;;;;;;;;;;22.20;65.70;;;;;;5023204;28;20028;-87
2022/07/09 05:56:41;;;;;;;;;;;22.80;64.90;;;;;;5025035;28;19999;-87
2022/07/09 05:59:07;;;;;;;;;;;22.50;65.60;;;;;;5023053;28;20007;-86
2022/07/09 06:01:33;;;;;;;;;;;22.50;66.10;;;;;;5024732;28;19952;-87
2022/07/09 06:03:58;;;;;;;;;;;22.40;65.40;;;;;;5024363;28;20376;-86
2022/07/09 06:06:24;;;;;;;;;;;22.40;64.90;;;;;;5006115;28;19919;-89
2022/07/09 06:08:50;;;;;;;;;;;22.30;66.20;;;;;;5024207;28;20423;-84
2022/07/09 06:11:15;;;;;;;;;;;22.60;63.70;;;;;;5023919;28;20015;-85
2022/07/09 06:13:41;;;;;;;;;;;23.40;63.30;;;;;;5023711;28;19913;-86
2022/07/09 06:16:07;;;;;;;;;;;24.30;61.80;;;;;;5024130;28;19913;-86
2022/07/09 06:18:32;;;;;;;;;;;24.90;60.50;;;;;;5024666;28;20735;-83
2022/07/09 06:20:58;;;;;;;;;;;25.10;59.30;;;;;;5023742;28;20372;-85
2022/07/09 06:23:23;;;;;;;;;;;25.20;58.70;;;;;;5024360;28;19909;-84
2022/07/09 06:25:49;;;;;;;;;;;25.10;58.90;;;;;;5023890;28;19921;-83
2022/07/09 06:28:15;;;;;;;;;;;25.60;57.40;;;;;;5023396;28;20654;-86
2022/07/09 06:30:40;;;;;;;;;;;25.70;57.80;;;;;;5021799;28;19916;-85
2022/07/09 06:33:06;;;;;;;;;;;25.70;57.30;;;;;;5004120;28;19929;-85
2022/07/09 06:35:32;;;;;;;;;;;26.20;57.40;;;;;;5022523;28;19920;-85
2022/07/09 06:38:00;;;;;;;;;;;27.50;55.10;;;;;;5024073;28;19946;-86
2022/07/09 06:40:26;;;;;;;;;;;26.80;54.30;;;;;;5024081;28;20386;-86
2022/07/09 06:43:01;;;;;;;;;;;27.30;54.70;;;;;;5022855;28;19909;-86
2022/07/09 06:45:27;;;;;;;;;;;28.10;53.20;;;;;;5023282;28;19919;-85
2022/07/09 06:47:52;;;;;;;;;;;27.50;52.70;;;;;;5023333;28;19909;-85
2022/07/09 06:50:18;;;;;;;;;;;27.90;53.00;;;;;;5027764;28;19992;-84
2022/07/09 06:52:44;;;;;;;;;;;29.60;53.00;;;;;;5022360;28;20495;-84
2022/07/09 06:55:10;;;;;;;;;;;29.30;51.40;;;;;;5023211;28;20392;-83
2022/07/09 06:57:36;;;;;;;;;;;28.40;51.70;;;;;;5023184;28;20465;-83
2022/07/09 07:00:03;;;;;;;;;;;28.70;51.70;;;;;;5022175;28;19917;-82
2022/07/09 07:02:28;;;;;;;;;;;29.20;50.60;;;;;;5022575;28;19935;-82
2022/07/09 07:04:54;;;;;;;;;;;29.60;50.50;;;;;;5021844;28;20385;-84
2022/07/09 07:07:20;;;;;;;;;;;30.60;49.20;;;;;;5022319;28;19924;-82
2022/07/09 07:09:45;;;;;;;;;;;30.40;50.60;;;;;;5023105;28;19959;-84
2022/07/09 07:12:11;;;;;;;;;;;30.50;48.90;;;;;;5022560;28;20756;-83
2022/07/09 07:14:37;;;;;;;;;;;30.80;48.30;;;;;;5023328;28;19931;-83
2022/07/09 07:17:03;;;;;;;;;;;31.20;48.00;;;;;;5022673;28;20297;-84
2022/07/09 07:19:28;;;;;;;;;;;31.30;47.40;;;;;;5025119;28;19920;-82
2022/07/09 07:21:54;;;;;;;;;;;31.50;47.00;;;;;;5027763;28;20518;-84
2022/07/09 07:24:20;;;;;;;;;;;32.10;47.70;;;;;;5019246;28;19913;-84
2022/07/09 07:26:45;;;;;;;;;;;31.20;46.80;;;;;;5019223;28;19920;-84
2022/07/09 07:29:11;;;;;;;;;;;31.50;46.20;;;;;;5022921;28;19931;-83
2022/07/09 07:31:40;;;;;;;;;;;32.40;45.70;;;;;;5021601;28;19928;-86
2022/07/09 07:34:05;;;;;;;;;;;32.80;46.80;;;;;;5021323;28;19913;-84
2022/07/09 07:36:31;;;;;;;;;;;32.70;45.50;;;;;;5005170;28;19919;-84
2022/07/09 07:38:56;;;;;;;;;;;32.40;45.70;;;;;;5023787;28;19913;-84
2022/07/09 07:41:22;;;;;;;;;;;33.40;45.10;;;;;;5023130;28;19920;-84
2022/07/09 07:43:48;;;;;;;;;;;33.10;43.00;;;;;;5023556;28;19909;-84
2022/07/09 07:46:13;;;;;;;;;;;33.20;45.50;;;;;;5023422;28;19931;-84
2022/07/09 07:48:43;;;;;;;;;;;33.30;44.70;;;;;;5023092;28;20401;-83
2022/07/09 07:51:09;;;;;;;;;;;33.60;43.80;;;;;;5023701;28;19962;-83
2022/07/09 07:53:35;;;;;;;;;;;34.90;44.10;;;;;;5023025;28;20373;-83
2022/07/09 07:56:00;;;;;;;;;;;34.90;43.00;;;;;;5022920;28;20510;-83
2022/07/09 07:58:26;;;;;;;;;;;34.50;43.70;;;;;;5022994;28;19988;-84
2022/07/09 08:00:52;;;;;;;;;;;33.80;44.30;;;;;;5019334;28;19953;-84
2022/07/09 08:03:17;;;;;;;;;;;34.40;42.50;;;;;;5004432;28;20008;-84
2022/07/09 08:05:43;;;;;;;;;;;34.70;44.10;;;;;;5022693;28;19913;-85
2022/07/09 08:08:08;;;;;;;;;;;36.00;41.30;;;;;;5022455;28;19909;-85
2022/07/09 08:10:34;;;;;;;;;;;36.10;40.90;;;;;;5011584;28;20512;-85
2022/07/09 08:12:59;;;;;;;;;;;36.10;41.60;;;;;;5004548;28;19913;-83
2022/07/09 08:15:25;;;;;;;;;;;36.70;40.80;;;;;;5005702;28;20402;-85
2022/07/09 08:17:50;;;;;;;;;;;37.40;40.20;;;;;;5023310;28;19913;-82
2022/07/09 08:20:16;;;;;;;;;;;37.90;41.70;;;;;;5007677;28;19979;-83
2022/07/09 08:22:41;;;;;;;;;;;38.00;41.60;;;;;;5025827;28;19979;-83
2022/07/09 08:25:07;;;;;;;;;;;36.10;41.80;;;;;;5024271;28;19970;-83
2022/07/09 08:27:33;;;;;;;;;;;36.50;40.80;;;;;;5015204;28;19929;-83
2022/07/09 08:29:58;;;;;;;;;;;36.50;40.00;;;;;;5015693;28;19916;-84
2022/07/09 08:32:24;;;;;;;;;;;36.80;40.00;;;;;;5003786;28;19931;-82
2022/07/09 08:34:49;;;;;;;;;;;37.00;40.30;;;;;;5020282;28;19917;-84
2022/07/09 08:37:15;;;;;;;;;;;36.70;40.50;;;;;;5022017;28;19944;-84
2022/07/09 08:39:40;;;;;;;;;;;35.50;40.30;;;;;;5025097;28;20488;-84
2022/07/09 08:42:10;;;;;;;;;;;36.10;41.10;;;;;;5025751;28;19909;-85
2022/07/09 08:44:37;;;;;;;;;;;35.70;39.90;;;;;;5025604;28;19909;-85
2022/07/09 08:47:03;;;;;;;;;;;36.90;40.10;;;;;;5025605;28;20400;-84
2022/07/09 08:49:30;;;;;;;;;;;35.60;40.90;;;;;;5025611;28;19943;-83
2022/07/09 08:51:56;;;;;;;;;;;35.00;41.40;;;;;;5008053;28;19956;-83
2022/07/09 08:54:22;;;;;;;;;;;35.70;41.20;;;;;;5025281;28;19909;-84
2022/07/09 08:56:49;;;;;;;;;;;36.60;40.40;;;;;;5025431;28;19931;-83
2022/07/09 08:59:15;;;;;;;;;;;36.80;39.80;;;;;;5025646;28;20386;-84
2022/07/09 09:01:40;;;;;;;;;;;36.90;41.40;;;;;;5025667;28;19916;-83
2022/07/09 09:04:05;;;;;;;;;;;36.50;42.40;;;;;;5025259;28;19913;-83
2022/07/09 09:06:36;;;;;;;;;;;36.80;40.10;;;;;;5025583;28;20011;-84
2022/07/09 09:09:01;;;;;;;;;;;37.60;40.00;;;;;;5025014;28;19916;-83
2022/07/09 09:11:28;;;;;;;;;;;37.60;37.50;;;;;;5024975;28;19908;-82
2022/07/09 09:13:54;;;;;;;;;;;36.60;40.30;;;;;;5024139;28;19928;-82
2022/07/09 09:16:21;;;;;;;;;;;36.40;40.30;;;;;;5023641;28;19963;-83
2022/07/09 09:18:48;;;;;;;;;;;36.90;40.90;;;;;;5024804;28;19939;-82
2022/07/09 09:21:14;;;;;;;;;;;36.60;40.60;;;;;;5024961;28;20389;-81
2022/07/09 09:23:43;;;;;;;;;;;37.20;40.30;;;;;;5024063;28;19913;-81
2022/07/09 09:26:16;;;;;;;;;;;36.20;39.60;;;;;;5024834;28;20400;-82
2022/07/09 09:28:45;;;;;;;;;;;36.20;39.40;;;;;;5018339;28;20390;-82
2022/07/09 09:31:24;;;;;;;;;;;36.60;41.00;;;;;;5024685;28;20879;-83
2022/07/09 09:34:13;;;;;;;;;;;37.10;41.40;;;;;;5019170;28;19927;-81
2022/07/09 09:36:39;;;;;;;;;;;37.80;39.60;;;;;;5007334;28;19915;-82
2022/07/09 09:39:18;;;;;;;;;;;36.80;39.10;;;;;;5025048;28;19983;-82
2022/07/09 09:41:46;;;;;;;;;;;36.80;39.50;;;;;;5022916;28;20394;-82
2022/07/09 09:44:13;;;;;;;;;;;36.60;41.30;;;;;;5019685;28;19913;-81
2022/07/09 09:46:39;;;;;;;;;;;36.70;40.10;;;;;;5007595;28;19935;-81
2022/07/09 09:49:07;;;;;;;;;;;36.20;39.70;;;;;;5006546;28;19917;-81
2022/07/09 09:51:52;;;;;;;;;;;36.40;39.70;;;;;;5008650;28;20763;-82
2022/07/09 09:54:18;;;;;;;;;;;36.90;39.40;;;;;;5011252;28;19913;-82
2022/07/09 09:56:44;;;;;;;;;;;36.50;39.60;;;;;;5019671;28;19913;-83
2022/07/09 09:59:11;;;;;;;;;;;36.70;40.10;;;;;;5023838;28;19928;-82
2022/07/09 10:01:37;;;;;;;;;;;36.80;40.50;;;;;;5024083;28;19959;-81
2022/07/09 10:04:03;;;;;;;;;;;36.80;39.00;;;;;;5022318;28;20385;-83
2022/07/09 10:06:28;;;;;;;;;;;36.60;39.30;;;;;;5024000;28;19916;-83
2022/07/09 10:08:54;;;;;;;;;;;36.80;39.20;;;;;;5024394;28;19909;-83
2022/07/09 10:11:21;;;;;;;;;;;36.80;39.70;;;;;;5023874;28;19924;-83
2022/07/09 10:13:56;;;;;;;;;;;36.40;39.70;;;;;;5014254;28;19913;-83
2022/07/09 10:16:32;;;;;;;;;;;35.80;40.50;;;;;;5024093;28;19952;-84
2022/07/09 10:18:57;;;;;;;;;;;37.10;39.80;;;;;;5022232;28;19909;-85
2022/07/09 10:21:35;;;;;;;;;;;37.40;41.30;;;;;;5022888;28;19925;-85
2022/07/09 10:24:01;;;;;;;;;;;37.50;41.30;;;;;;5022825;28;20006;-84
2022/07/09 10:26:42;;;;;;;;;;;37.70;38.30;;;;;;5023933;28;19983;-84
2022/07/09 10:29:22;;;;;;;;;;;37.20;40.10;;;;;;5024094;28;19908;-85
2022/07/09 10:31:48;;;;;;;;;;;36.30;40.20;;;;;;5024108;28;19916;-84
2022/07/09 10:34:21;;;;;;;;;;;37.10;41.20;;;;;;5023825;28;20278;-83
2022/07/09 10:36:59;;;;;;;;;;;36.00;41.60;;;;;;5010911;28;19913;-82
2022/07/09 10:39:25;;;;;;;;;;;36.20;40.50;;;;;;5005145;28;19917;-84
2022/07/09 10:42:07;;;;;;;;;;;36.10;42.50;;;;;;5022933;28;19917;-83
2022/07/09 10:44:36;;;;;;;;;;;34.30;40.80;;;;;;5023389;28;19940;-83
2022/07/09 10:47:02;;;;;;;;;;;32.60;43.00;;;;;;5023996;28;19914;-82
2022/07/09 10:49:28;;;;;;;;;;;32.10;42.70;;;;;;5009930;28;20455;-82
2022/07/09 10:51:59;;;;;;;;;;;31.90;44.80;;;;;;5016646;28;19913;-84
2022/07/09 10:54:25;;;;;;;;;;;31.70;46.00;;;;;;5021857;28;20484;-84
2022/07/09 10:56:51;;;;;;;;;;;31.10;45.20;;;;;;5015000;28;19917;-83
2022/07/09 10:59:20;;;;;;;;;;;31.10;46.00;;;;;;5019577;28;19920;-82
2022/07/09 11:01:46;;;;;;;;;;;30.80;45.50;;;;;;5019718;28;19924;-84
2022/07/09 11:04:12;;;;;;;;;;;31.00;47.90;;;;;;5022647;28;19909;-84
2022/07/09 11:06:44;;;;;;;;;;;30.40;45.50;;;;;;5022391;28;19908;-82
2022/07/09 11:09:13;;;;;;;;;;;30.20;46.90;;;;;;5020724;28;20087;-83
2022/07/09 11:11:41;;;;;;;;;;;30.20;47.20;;;;;;5015783;28;19913;-83
2022/07/09 11:14:06;;;;;;;;;;;30.30;48.10;;;;;;5020372;28;19909;-83
2022/07/09 11:16:32;;;;;;;;;;;30.30;48.90;;;;;;5022766;28;19913;-83
2022/07/09 11:18:57;;;;;;;;;;;30.30;48.50;;;;;;4996013;28;19909;-83
2022/07/09 11:21:26;;;;;;;;;;;30.60;47.90;;;;;;5013584;28;20809;-83
2022/07/09 11:23:52;;;;;;;;;;;30.30;46.90;;;;;;5014968;28;20579;-83
2022/07/09 11:26:17;;;;;;;;;;;30.30;48.40;;;;;;5014929;28;19909;-83
2022/07/09 11:28:44;;;;;;;;;;;30.30;49.60;;;;;;5023133;28;19912;-83
2022/07/09 11:31:09;;;;;;;;;;;30.00;46.40;;;;;;5020275;28;20589;-83
2022/07/09 11:36:20;;;;;;;;;;;29.90;47.70;;;;;;5022905;28;19963;-83
2022/07/09 11:38:49;;;;;;;;;;;29.70;47.60;;;;;;5017741;28;19917;-84
2022/07/09 11:41:15;;;;;;;;;;;29.50;47.40;;;;;;5018719;28;20356;-83
2022/07/09 11:43:45;;;;;;;;;;;29.70;47.80;;;;;;5023153;28;19944;-84
2022/07/09 11:46:15;;;;;;;;;;;29.40;47.60;;;;;;5022297;28;19952;-81
2022/07/09 11:48:53;;;;;;;;;;;29.30;48.40;;;;;;5023319;28;19916;-83
2022/07/09 11:51:45;;;;;;;;;;;29.40;47.40;;;;;;5022484;28;19919;-83
2022/07/09 11:54:10;;;;;;;;;;;29.40;49.40;;;;;;5022671;28;20055;-82
2022/07/09 11:56:40;;;;;;;;;;;29.20;47.20;;;;;;5025732;28;20023;-83
2022/07/09 11:59:05;;;;;;;;;;;29.10;49.00;;;;;;5025969;28;20552;-83
2022/07/09 12:01:31;;;;;;;;;;;28.90;47.20;;;;;;5025385;28;19917;-83
2022/07/09 12:03:57;;;;;;;;;;;29.00;48.70;;;;;;5026378;28;19913;-82
2022/07/09 12:06:22;;;;;;;;;;;29.10;47.50;;;;;;5025838;28;20390;-83
2022/07/09 12:08:58;;;;;;;;;;;29.20;48.20;;;;;;5024665;28;19932;-83
2022/07/09 12:11:27;;;;;;;;;;;29.10;46.80;;;;;;5025811;28;19913;-83
2022/07/09 12:13:52;;;;;;;;;;;29.10;48.60;;;;;;5024633;28;19988;-83
2022/07/09 12:16:18;;;;;;;;;;;29.20;47.10;;;;;;5025595;28;19944;-82
2022/07/09 12:18:43;;;;;;;;;;;28.90;48.10;;;;;;5025475;28;19940;-82
2022/07/09 12:21:09;;;;;;;;;;;29.00;47.80;;;;;;5025571;28;19921;-83
2022/07/09 12:23:34;;;;;;;;;;;29.00;47.00;;;;;;5023822;28;19913;-84
2022/07/09 12:26:00;;;;;;;;;;;29.00;47.70;;;;;;5007508;28;19963;-82
2022/07/09 12:28:25;;;;;;;;;;;29.00;48.50;;;;;;5023735;28;19912;-82
2022/07/09 12:30:51;;;;;;;;;;;29.00;47.70;;;;;;5025545;28;20432;-83
2022/07/09 12:33:17;;;;;;;;;;;29.10;47.50;;;;;;5005945;28;20016;-82
2022/07/09 12:35:42;;;;;;;;;;;29.00;46.80;;;;;;5025046;28;19912;-83
2022/07/09 12:38:08;;;;;;;;;;;29.00;47.30;;;;;;5026273;28;19909;-83
2022/07/09 12:40:33;;;;;;;;;;;29.10;48.90;;;;;;5025771;28;19923;-83
2022/07/09 12:42:59;;;;;;;;;;;29.10;47.50;;;;;;5025205;28;19913;-83
2022/07/09 12:45:24;;;;;;;;;;;29.00;48.00;;;;;;5025920;28;19964;-82
2022/07/09 12:47:50;;;;;;;;;;;28.90;47.90;;;;;;5024296;28;19917;-82
2022/07/09 12:50:16;;;;;;;;;;;29.00;46.40;;;;;;5026130;28;19917;-81
2022/07/09 12:52:42;;;;;;;;;;;29.00;47.30;;;;;;5007589;28;19916;-82
2022/07/09 12:55:08;;;;;;;;;;;29.00;47.40;;;;;;5025666;28;20368;-83
2022/07/09 12:57:34;;;;;;;;;;;29.10;46.10;;;;;;5025099;28;19917;-82
2022/07/09 12:59:59;;;;;;;;;;;29.00;45.30;;;;;;5024190;28;19928;-82
2022/07/09 13:02:25;;;;;;;;;;;29.00;47.20;;;;;;5024641;28;19916;-81
2022/07/09 13:04:50;;;;;;;;;;;28.90;46.00;;;;;;5025372;28;19909;-82
2022/07/09 13:07:16;;;;;;;;;;;29.00;46.20;;;;;;5025787;28;19913;-82
2022/07/09 13:09:41;;;;;;;;;;;29.10;48.80;;;;;;5025579;28;19909;-82
2022/07/09 13:12:07;;;;;;;;;;;29.00;45.70;;;;;;5018956;28;19980;-82
2022/07/09 13:14:33;;;;;;;;;;;29.10;44.90;;;;;;5014332;28;19920;-82
2022/07/09 13:16:58;;;;;;;;;;;29.00;45.80;;;;;;5005437;28;20362;-82
2022/07/09 13:19:24;;;;;;;;;;;29.10;45.60;;;;;;5009808;28;19917;-82
2022/07/09 13:21:49;;;;;;;;;;;29.00;44.30;;;;;;5008163;28;19913;-83
2022/07/09 13:24:15;;;;;;;;;;;28.90;45.10;;;;;;5010879;28;19966;-82
2022/07/09 13:26:41;;;;;;;;;;;28.80;44.80;;;;;;5022755;28;19913;-83
2022/07/09 13:29:06;;;;;;;;;;;28.90;45.10;;;;;;4997855;28;19920;-82
2022/07/09 13:31:32;;;;;;;;;;;28.90;46.70;;;;;;5005323;28;20796;-82
2022/07/09 13:33:57;;;;;;;;;;;29.00;47.00;;;;;;5007313;28;19917;-82
2022/07/09 13:36:23;;;;;;;;;;;29.10;46.60;;;;;;5007981;28;19909;-82
2022/07/09 13:38:48;;;;;;;;;;;28.80;43.90;;;;;;5005346;28;19913;-82
2022/07/09 13:41:14;;;;;;;;;;;28.90;44.40;;;;;;5006355;28;19928;-82
2022/07/09 13:43:39;;;;;;;;;;;28.90;44.30;;;;;;5006817;28;20097;-82
2022/07/09 13:46:06;;;;;;;;;;;28.80;43.50;;;;;;5004238;28;19916;-83
2022/07/09 13:48:32;;;;;;;;;;;29.00;46.00;;;;;;5006266;28;20379;-81
2022/07/09 13:50:58;;;;;;;;;;;29.00;45.50;;;;;;5003150;28;19909;-82
2022/07/09 13:53:23;;;;;;;;;;;28.80;44.50;;;;;;5007510;28;20328;-82
2022/07/09 13:55:49;;;;;;;;;;;28.80;46.10;;;;;;5015912;28;19914;-82
2022/07/09 13:58:14;;;;;;;;;;;28.90;45.30;;;;;;5004171;28;19920;-82
2022/07/09 14:00:40;;;;;;;;;;;28.90;44.90;;;;;;5005886;28;19917;-81
2022/07/09 14:03:06;;;;;;;;;;;28.90;46.80;;;;;;5014349;28;20022;-82
2022/07/09 14:05:31;;;;;;;;;;;28.80;45.50;;;;;;5019903;28;20307;-82
2022/07/09 14:07:58;;;;;;;;;;;28.90;48.10;;;;;;5007114;28;20435;-82
2022/07/09 14:10:24;;;;;;;;;;;28.70;46.50;;;;;;5006188;28;20008;-82
2022/07/09 14:12:49;;;;;;;;;;;28.70;45.80;;;;;;5015542;28;20003;-82
2022/07/09 14:15:15;;;;;;;;;;;28.80;48.50;;;;;;5017215;28;19917;-81